createdAt,value
2022-12-16T00:00:03.654Z,25.80
2022-12-16T00:03:03.124Z,25.00
2022-12-16T00:06:19.360Z,25.50
2022-12-16T00:08:56.799Z,23.60
2022-12-16T00:11:24.977Z,24.60
2022-12-16T00:13:52.715Z,25.20
2022-12-16T00:16:33.784Z,26.50
2022-12-16T00:19:20.966Z,23.80
2022-12-16T00:22:12.211Z,24.70
2022-12-16T00:25:02.772Z,24.00
2022-12-16T00:27:56.204Z,23.30
2022-12-16T00:30:29.608Z,23.40
2022-12-16T00:32:57.723Z,23.70
2022-12-16T00:35:53.211Z,20.60
2022-12-16T00:38:28.384Z,22.10
2022-12-16T00:41:53.083Z,20.70
2022-12-16T00:44:10.110Z,19.10
2022-12-16T00:46:41.131Z,18.60
2022-12-16T00:49:15.597Z,18.90
2022-12-16T00:51:45.010Z,19.30
2022-12-16T00:54:16.735Z,19.80
2022-12-16T00:56:47.784Z,19.50
2022-12-16T01:00:12.043Z,21.00
2022-12-16T01:03:07.927Z,19.10
2022-12-16T01:08:31.736Z,16.50
2022-12-16T01:11:34.818Z,19.30
2022-12-16T01:14:55.770Z,18.80
2022-12-16T01:18:16.747Z,18.70
2022-12-16T01:31:55.931Z,16.10
2022-12-16T01:34:30.496Z,16.60
2022-12-16T01:38:02.775Z,15.80
2022-12-16T01:41:02.954Z,16.00
2022-12-16T01:44:21.931Z,16.50
2022-12-16T01:48:02.148Z,16.60
2022-12-16T01:50:48.798Z,17.00
2022-12-16T01:56:54.723Z,15.30
2022-12-16T01:57:05.106Z,16.80
2022-12-16T01:59:43.919Z,17.10
2022-12-16T02:02:17.540Z,17.30
2022-12-16T02:25:58.602Z,20.70
2022-12-16T02:39:13.578Z,16.30
2022-12-16T05:16:08.312Z,11.90
2022-12-16T05:21:30.572Z,10.90
2022-12-16T05:31:38.051Z,11.80
2022-12-16T05:34:58.253Z,12.40
2022-12-16T07:20:11.613Z,18.80
2022-12-16T07:24:23.983Z,18.10
2022-12-16T07:38:30.183Z,15.50
2022-12-16T09:42:21.088Z,6.00
2022-12-16T09:45:48.650Z,6.10
2022-12-16T10:03:06.841Z,7.00
2022-12-16T10:13:08.751Z,7.30
2022-12-16T10:14:00.781Z,5.30
2022-12-16T10:26:07.896Z,4.00
2022-12-16T11:39:01.137Z,3.30
2022-12-16T11:47:08.363Z,4.30
2022-12-16T12:03:04.571Z,3.30
2022-12-16T12:09:57.386Z,3.40
2022-12-16T12:26:55.805Z,3.50
2022-12-16T13:10:50.988Z,3.80
2022-12-16T13:35:35.906Z,3.50
2022-12-16T13:36:18.786Z,4.70
2022-12-16T13:44:27.115Z,3.70
2022-12-16T13:48:41.201Z,4.10
2022-12-16T13:56:05.424Z,3.60
2022-12-16T13:57:26.997Z,3.60
2022-12-16T14:00:31.894Z,3.90
2022-12-16T14:04:27.124Z,2.80
2022-12-16T14:16:01.465Z,2.90
2022-12-16T14:16:23.128Z,2.90
2022-12-16T14:19:32.071Z,5.60
2022-12-16T14:23:14.917Z,5.40
2022-12-16T14:26:48.447Z,6.50
2022-12-16T14:29:49.990Z,8.50
2022-12-16T14:32:54.705Z,6.50
2022-12-16T14:35:48.277Z,7.40
2022-12-16T14:38:45.026Z,8.50
2022-12-16T14:41:54.248Z,5.90
2022-12-16T14:45:06.987Z,7.70
2022-12-16T14:48:08.050Z,5.70
2022-12-16T14:50:55.151Z,5.40
2022-12-16T14:54:07.491Z,4.80
2022-12-16T14:57:08.714Z,7.00
2022-12-16T14:59:58.106Z,6.70
2022-12-16T15:03:02.246Z,12.70
2022-12-16T15:05:55.300Z,10.20
2022-12-16T15:09:10.058Z,7.40
2022-12-16T15:12:14.368Z,10.40
2022-12-16T15:15:33.060Z,17.10
2022-12-16T15:18:20.465Z,9.50
2022-12-16T15:21:14.211Z,8.00
2022-12-16T15:24:07.471Z,11.40
2022-12-16T15:26:54.590Z,17.80
2022-12-16T15:29:54.847Z,15.60
2022-12-16T15:32:53.059Z,19.80
2022-12-16T15:35:51.147Z,18.10
2022-12-16T15:38:52.657Z,20.40
2022-12-16T15:41:49.399Z,18.50
2022-12-16T15:47:53.993Z,21.40
2022-12-16T15:50:49.161Z,17.90
2022-12-16T15:54:01.645Z,18.40
2022-12-16T15:57:07.888Z,18.20
2022-12-16T16:00:11.179Z,20.30
2022-12-16T16:03:07.676Z,22.60
2022-12-16T16:05:54.969Z,37.40
2022-12-16T16:08:40.404Z,30.50
2022-12-16T16:11:26.198Z,31.70
2022-12-16T16:14:14.349Z,23.20
2022-12-16T16:17:00.372Z,25.20
2022-12-16T16:19:46.828Z,31.10
2022-12-16T16:22:35.530Z,14.80
2022-12-16T16:25:20.925Z,11.90
2022-12-16T16:28:06.250Z,13.00
2022-12-16T16:30:51.720Z,11.80
2022-12-16T16:33:51.013Z,12.60
2022-12-16T16:36:46.652Z,15.10
2022-12-16T16:39:34.569Z,40.60
2022-12-16T16:42:20.603Z,27.20
2022-12-16T16:45:06.056Z,10.80
2022-12-16T16:47:51.348Z,26.10
2022-12-16T16:50:37.442Z,49.80
2022-12-16T16:53:22.991Z,46.00
2022-12-16T16:56:18.084Z,40.20
2022-12-16T16:59:05.969Z,36.10
2022-12-16T17:01:51.507Z,38.60
2022-12-16T17:04:37.226Z,32.40
2022-12-16T17:07:25.338Z,32.30
2022-12-16T17:10:10.692Z,40.40
2022-12-16T17:13:04.255Z,47.10
2022-12-16T17:15:55.526Z,51.70
2022-12-16T17:21:38.016Z,58.00
2022-12-16T17:24:32.680Z,53.00
2022-12-16T17:27:39.345Z,48.80
2022-12-16T17:30:33.600Z,47.40
2022-12-16T17:33:22.071Z,47.20
2022-12-16T17:36:11.034Z,47.70
2022-12-16T17:39:02.224Z,50.20
2022-12-16T17:41:54.314Z,49.50
2022-12-16T17:44:39.762Z,50.50
2022-12-16T17:47:25.160Z,53.30
2022-12-16T17:50:10.846Z,50.40
2022-12-16T17:53:55.737Z,42.20
2022-12-16T17:56:46.297Z,33.50
2022-12-16T17:59:33.990Z,36.30
2022-12-16T18:02:19.516Z,42.40
2022-12-16T18:05:18.517Z,48.10
2022-12-16T18:08:03.929Z,48.10
2022-12-16T18:14:57.659Z,44.40
2022-12-16T18:17:57.343Z,59.40
2022-12-16T18:21:21.798Z,72.00
2022-12-16T18:27:13.102Z,61.30
2022-12-16T18:37:57.294Z,57.90
2022-12-16T18:41:21.270Z,53.20
2022-12-16T18:44:11.032Z,52.90
2022-12-16T18:46:58.611Z,45.40
2022-12-16T18:49:43.936Z,46.70
2022-12-16T18:52:29.737Z,40.70
2022-12-16T18:58:49.855Z,50.40
2022-12-16T19:01:29.680Z,51.50
2022-12-16T19:04:15.963Z,48.50
2022-12-16T19:07:02.092Z,46.50
2022-12-16T19:09:47.845Z,44.90
2022-12-16T19:12:41.205Z,44.00
2022-12-16T19:16:57.882Z,46.60
2022-12-16T19:24:19.405Z,49.10
2022-12-16T21:33:44.991Z,34.70
2022-12-16T21:45:23.663Z,34.50
2022-12-16T21:49:47.810Z,39.80
